KFOZ

Bigfork Municipal Airport

Bigfork, Minnesota, USA
METAR KFOZ 240713Z AUTO 14003KT 10SM CLR 18/15 A3003 RMK AO2
Observed Flight Rules
May-24 @ 07:13 UTC (22 minutes ago) Visual Flight Rules
Wind Visibility Clouds
140° at 3 knots 10 miles
  • Clear skies
Temperatures Readings
Current 18°C / 64°F
Dewpoint 15°C / 59°F
Humidity 83%
Altimeter 30.03" Hg
Pressure 1017 hPa
Elevation 411
METAR KFOZ 240713Z AUTO 14003KT 10SM CLR 18/15 A3003 RMK AO2
Observed Flight Rules
May-24 @ 07:13 UTC
(22 minutes ago)
VFR
Wind Visibility
140° at 3 knots 10 miles
Clouds
  • Clear skies
Temperature Dewpoint
18°C / 64°F 15°C / 59°F
Humidity Altimeter Pressure
83% 30.03" Hg 1017 hPa